Time;durP1;ratioP1;P1;durP2;ratioP2;P2;SDS_P1;SDS_P2;PMS_P1;PMS_P2;Temp;Humidity;BMP_temperature;BMP_pressure;BME280_temperature;BME280_humidity;BME280_pressure;Samples;Min_cycle;Max_cycle;Signal;HPM_P1;HPM_P2
2023/08/17 04:22:34;;;;;;;14.35;7.90;;;;;;;18.03;100.00;100253.00;5109748;27;20388;-69
2023/08/17 04:24:59;;;;;;;16.73;8.02;;;;;;;18.01;100.00;100257.81;5109777;28;20040;-69
2023/08/17 04:27:25;;;;;;;16.20;7.78;;;;;;;18.02;100.00;100255.94;5108429;28;20088;-68
2023/08/17 04:29:50;;;;;;;15.93;7.82;;;;;;;18.00;100.00;100249.94;5108252;28;20113;-69
2023/08/17 04:32:16;;;;;;;14.35;8.13;;;;;;;18.02;100.00;100262.13;5108564;28;20032;-69
2023/08/17 04:34:43;;;;;;;17.88;7.82;;;;;;;18.03;100.00;100265.66;5108353;28;20032;-69
2023/08/17 04:37:09;;;;;;;13.98;7.97;;;;;;;18.06;100.00;100259.81;5109621;28;20052;-69
2023/08/17 04:39:34;;;;;;;12.63;7.18;;;;;;;18.10;100.00;100269.13;5108005;28;20498;-69
2023/08/17 04:42:00;;;;;;;14.05;7.78;;;;;;;18.10;100.00;100264.53;5108113;28;20032;-68
2023/08/17 04:44:30;;;;;;;14.15;7.18;;;;;;;18.13;100.00;100269.50;5108144;28;20036;-69
2023/08/17 04:46:57;;;;;;;15.23;8.00;;;;;;;18.16;100.00;100273.63;5108069;28;20058;-69
2023/08/17 04:49:22;;;;;;;14.57;7.85;;;;;;;18.17;100.00;100277.97;5108983;28;20478;-69
2023/08/17 04:51:47;;;;;;;14.80;8.45;;;;;;;18.14;100.00;100275.72;5108038;28;20028;-68
2023/08/17 04:54:13;;;;;;;12.52;7.55;;;;;;;18.18;100.00;100283.13;5108116;28;20043;-69
2023/08/17 04:56:38;;;;;;;12.68;7.20;;;;;;;18.22;100.00;100272.72;5109108;28;20138;-69
2023/08/17 04:59:04;;;;;;;14.48;8.00;;;;;;;18.25;100.00;100274.16;5108911;28;20028;-69
2023/08/17 05:01:29;;;;;;;13.55;6.60;;;;;;;18.27;100.00;100280.97;5107780;28;20035;-69
2023/08/17 05:03:55;;;;;;;11.30;6.50;;;;;;;18.33;100.00;100279.28;5107788;28;20126;-68
2023/08/17 05:06:20;;;;;;;15.10;7.15;;;;;;;18.34;100.00;100280.91;5107588;28;20040;-69
2023/08/17 05:08:46;;;;;;;13.43;7.03;;;;;;;18.38;100.00;100284.78;5107429;28;20128;-69
2023/08/17 05:11:12;;;;;;;11.52;5.90;;;;;;;18.41;100.00;100281.66;5109090;28;20039;-70
2023/08/17 05:13:38;;;;;;;12.55;6.93;;;;;;;18.36;100.00;100276.13;5107563;28;20042;-69
2023/08/17 05:16:05;;;;;;;11.10;6.22;;;;;;;18.44;100.00;100279.34;5107456;28;20028;-68
2023/08/17 05:18:31;;;;;;;12.90;5.82;;;;;;;18.48;100.00;100285.13;5107176;28;20031;-68
2023/08/17 05:20:56;;;;;;;11.63;5.53;;;;;;;18.51;100.00;100289.22;5107220;28;20040;-69
2023/08/17 05:23:21;;;;;;;16.27;7.93;;;;;;;18.52;100.00;100291.72;5107373;28;20067;-69
2023/08/17 05:25:47;;;;;;;9.80;5.70;;;;;;;18.57;100.00;100299.13;5107292;28;20027;-69
2023/08/17 05:28:14;;;;;;;11.18;5.50;;;;;;;18.57;100.00;100296.41;5107226;28;20127;-69
2023/08/17 05:30:39;;;;;;;10.73;5.32;;;;;;;18.60;100.00;100296.81;5108304;28;20032;-69
2023/08/17 05:33:04;;;;;;;9.00;5.13;;;;;;;18.65;100.00;100296.97;5098345;28;20248;-68
2023/08/17 05:35:30;;;;;;;12.02;5.20;;;;;;;18.69;100.00;100291.97;5093489;28;20028;-69
2023/08/17 05:37:57;;;;;;;9.10;5.77;;;;;;;18.73;100.00;100289.66;5093621;28;20036;-69
2023/08/17 05:40:22;;;;;;;10.45;6.13;;;;;;;18.76;100.00;100294.59;5093212;28;20039;-69
2023/08/17 05:42:47;;;;;;;10.10;5.10;;;;;;;18.77;100.00;100299.75;5093426;28;20044;-68
2023/08/17 05:45:13;;;;;;;8.82;5.93;;;;;;;18.82;100.00;100297.22;5094660;28;20032;-68
2023/08/17 05:47:38;;;;;;;11.02;5.47;;;;;;;18.84;100.00;100302.38;5093398;28;20122;-69
2023/08/17 05:50:04;;;;;;;11.52;5.65;;;;;;;18.86;100.00;100303.81;5094533;28;20066;-69
2023/08/17 05:52:29;;;;;;;11.77;5.53;;;;;;;18.88;100.00;100304.41;5094587;28;20036;-69
2023/08/17 05:54:55;;;;;;;11.63;5.97;;;;;;;18.94;100.00;100314.28;5080638;28;20044;-69
2023/08/17 05:57:20;;;;;;;8.93;5.35;;;;;;;18.95;100.00;100309.72;5074077;28;20151;-68
2023/08/17 05:59:46;;;;;;;11.55;5.88;;;;;;;18.96;100.00;100316.75;5073807;28;20041;-68
2023/08/17 06:02:11;;;;;;;10.10;5.72;;;;;;;19.02;100.00;100310.44;5074048;28;20111;-67
2023/08/17 06:04:36;;;;;;;14.60;6.55;;;;;;;19.05;100.00;100320.81;5074051;28;20044;-67
2023/08/17 06:07:02;;;;;;;13.00;5.85;;;;;;;19.07;100.00;100321.41;5073957;28;20072;-67
2023/08/17 06:09:27;;;;;;;13.00;6.35;;;;;;;19.09;100.00;100321.16;5073716;28;20074;-68
2023/08/17 06:11:53;;;;;;;14.40;5.80;;;;;;;19.07;100.00;100318.69;5074051;28;20119;-68
2023/08/17 06:14:18;;;;;;;14.88;6.32;;;;;;;19.13;100.00;100317.78;5073916;28;20043;-69
2023/08/17 06:16:43;;;;;;;10.60;5.97;;;;;;;19.17;100.00;100319.00;5087251;28;20044;-49
2023/08/17 06:19:09;;;;;;;11.80;6.05;;;;;;;19.18;100.00;100315.25;5093756;28;20036;-53
2023/08/17 06:21:34;;;;;;;14.45;6.57;;;;;;;19.22;100.00;100319.13;5093968;28;20097;-50
2023/08/17 06:23:59;;;;;;;15.23;6.32;;;;;;;19.28;100.00;100321.97;5093927;28;20047;-52
2023/08/17 06:26:25;;;;;;;13.65;6.15;;;;;;;19.31;100.00;100322.34;5093746;28;20119;-52
2023/08/17 06:28:50;;;;;;;12.77;6.45;;;;;;;19.35;100.00;100322.69;5093722;28;20036;-52
2023/08/17 06:31:16;;;;;;;12.68;6.63;;;;;;;19.33;100.00;100319.41;5093608;28;20066;-50
2023/08/17 06:33:41;;;;;;;13.85;7.32;;;;;;;19.40;100.00;100320.97;5093732;28;20402;-53
2023/08/17 06:36:07;;;;;;;33.88;8.90;;;;;;;19.46;100.00;100324.63;5093633;28;20040;-51
2023/08/17 06:38:32;;;;;;;13.98;6.95;;;;;;;19.45;100.00;100317.56;5093476;28;20032;-49
2023/08/17 06:40:57;;;;;;;18.85;8.75;;;;;;;19.49;100.00;100322.28;5093751;28;20028;-50
2023/08/17 06:43:23;;;;;;;15.60;7.20;;;;;;;19.50;100.00;100317.72;5093323;28;20567;-52
2023/08/17 06:45:48;;;;;;;16.00;7.95;;;;;;;19.54;100.00;100313.47;5092744;28;20046;-49
2023/08/17 06:48:14;;;;;;;14.32;7.28;;;;;;;19.59;100.00;100315.53;5093448;28;20399;-51
2023/08/17 06:50:39;;;;;;;17.30;7.43;;;;;;;19.64;100.00;100319.19;5093113;28;20079;-49
2023/08/17 06:53:05;;;;;;;17.25;8.27;;;;;;;19.65;100.00;100320.03;5093357;28;20036;-50
2023/08/17 06:55:30;;;;;;;14.82;8.35;;;;;;;19.58;100.00;100303.09;5093266;28;20398;-53
2023/08/17 06:57:56;;;;;;;16.42;8.52;;;;;;;19.71;100.00;100321.81;5093201;28;20076;-53
2023/08/17 07:00:22;;;;;;;17.67;8.35;;;;;;;19.75;100.00;100320.25;5092992;28;20027;-51
2023/08/17 07:02:48;;;;;;;17.58;7.95;;;;;;;19.72;100.00;100318.84;5093044;28;20530;-50
2023/08/17 07:05:18;;;;;;;14.20;7.05;;;;;;;19.77;100.00;100324.41;5092927;28;20032;-50
2023/08/17 07:07:44;;;;;;;13.90;7.78;;;;;;;19.79;100.00;100326.88;5093044;28;20063;-51
2023/08/17 07:10:10;;;;;;;17.70;8.10;;;;;;;19.85;100.00;100325.94;5092704;28;20109;-50
2023/08/17 07:12:37;;;;;;;13.25;7.35;;;;;;;19.86;100.00;100326.75;5093005;28;20040;-53
2023/08/17 07:15:04;;;;;;;13.93;6.60;;;;;;;19.90;100.00;100328.78;5092976;28;20048;-51
2023/08/17 07:17:29;;;;;;;17.08;6.97;;;;;;;19.89;100.00;100332.53;5092962;28;20035;-50
2023/08/17 07:19:55;;;;;;;16.27;6.40;;;;;;;19.96;100.00;100329.72;5092580;28;20032;-53
2023/08/17 07:22:20;;;;;;;17.20;6.88;;;;;;;19.94;100.00;100329.94;5092540;28;20556;-52
2023/08/17 07:24:46;;;;;;;12.70;6.50;;;;;;;19.97;100.00;100323.25;5092688;28;20066;-51
2023/08/17 07:27:11;;;;;;;12.10;6.47;;;;;;;19.98;100.00;100325.72;5092698;28;20032;-62
2023/08/17 07:29:36;;;;;;;12.50;6.57;;;;;;;20.02;100.00;100328.81;5092455;28;20040;-62
2023/08/17 07:32:02;;;;;;;14.38;6.15;;;;;;;20.00;100.00;100320.06;5092699;28;20078;-62
2023/08/17 07:34:31;;;;;;;13.27;6.47;;;;;;;20.08;100.00;100324.31;5092719;28;20039;-62
2023/08/17 07:36:57;;;;;;;11.02;6.57;;;;;;;20.15;100.00;100319.63;5092541;28;20399;-62
2023/08/17 07:39:22;;;;;;;20.92;7.38;;;;;;;20.16;100.00;100314.00;5092210;28;20439;-62
2023/08/17 07:41:48;;;;;;;17.67;7.68;;;;;;;20.15;100.00;100309.66;5092542;28;20067;-62
2023/08/17 07:44:13;;;;;;;14.27;6.43;;;;;;;20.24;100.00;100310.94;5092472;28;20032;-62
2023/08/17 07:46:38;;;;;;;13.00;7.07;;;;;;;20.30;100.00;100312.69;5092480;28;20040;-61
2023/08/17 07:49:04;;;;;;;15.80;8.10;;;;;;;20.36;100.00;100315.53;5092206;28;20040;-62
2023/08/17 07:51:31;;;;;;;18.80;8.23;;;;;;;20.47;100.00;100320.94;5092318;28;20115;-62
2023/08/17 07:53:57;;;;;;;13.80;7.47;;;;;;;20.48;100.00;100319.91;5092321;28;20057;-62
2023/08/17 07:56:23;;;;;;;14.05;6.95;;;;;;;20.55;100.00;100334.13;5092043;28;20506;-62
2023/08/17 07:58:49;;;;;;;19.70;7.90;;;;;;;20.60;100.00;100344.22;5092079;28;20065;-61
2023/08/17 08:01:14;;;;;;;13.25;6.47;;;;;;;20.65;100.00;100338.09;5092633;28;20578;-62
2023/08/17 08:03:40;;;;;;;15.75;8.02;;;;;;;20.67;100.00;100344.94;5092250;28;20039;-61
2023/08/17 08:06:05;;;;;;;15.82;7.72;;;;;;;20.70;100.00;100344.47;5092100;28;20073;-62
2023/08/17 08:08:30;;;;;;;19.90;7.78;;;;;;;20.75;100.00;100335.63;5091870;28;20121;-62
2023/08/17 08:10:56;;;;;;;17.45;8.00;;;;;;;20.79;100.00;100340.31;5092004;28;20039;-62
2023/08/17 08:13:21;;;;;;;15.55;7.82;;;;;;;20.92;100.00;100339.22;5092043;28;20452;-62
2023/08/17 08:15:47;;;;;;;13.00;7.07;;;;;;;21.02;100.00;100334.03;5091955;28;20089;-62
2023/08/17 08:18:12;;;;;;;16.13;8.65;;;;;;;21.00;100.00;100335.34;5091952;28;20039;-62
2023/08/17 08:20:38;;;;;;;14.40;6.78;;;;;;;21.11;100.00;100337.19;5091650;28;20165;-61
2023/08/17 08:23:03;;;;;;;13.52;6.82;;;;;;;21.17;100.00;100333.50;5091975;28;20127;-62
2023/08/17 08:25:29;;;;;;;13.57;6.97;;;;;;;21.26;100.00;100340.22;5091825;28;20028;-62
2023/08/17 08:27:54;;;;;;;13.00;6.53;;;;;;;21.24;100.00;100341.50;5091890;28;20040;-62
2023/08/17 08:30:19;;;;;;;10.70;7.18;;;;;;;21.19;100.00;100346.81;5091482;28;20045;-61
2023/08/17 08:32:45;;;;;;;14.82;6.90;;;;;;;21.23;100.00;100348.81;5091763;28;20558;-62
2023/08/17 08:35:10;;;;;;;17.75;7.85;;;;;;;21.23;100.00;100348.81;5091748;28;20426;-62
2023/08/17 08:37:36;;;;;;;14.10;7.60;;;;;;;21.38;100.00;100345.59;5091792;28;20123;-62
2023/08/17 08:40:01;;;;;;;13.35;7.72;;;;;;;21.40;100.00;100344.31;5092079;28;20044;-61
2023/08/17 08:42:27;;;;;;;15.82;8.32;;;;;;;21.50;100.00;100345.56;5091744;28;20032;-62
2023/08/17 08:44:53;;;;;;;13.25;7.47;;;;;;;21.62;100.00;100340.91;5090619;28;20040;-62
2023/08/17 08:47:18;;;;;;;13.13;7.50;;;;;;;21.71;100.00;100349.44;5091582;28;20044;-62
2023/08/17 08:50:04;;;;;;;13.13;6.90;;;;;;;21.87;100.00;100345.97;5091308;28;20059;-62
2023/08/17 08:52:34;;;;;;;16.50;7.85;;;;;;;21.85;100.00;100351.63;5091444;28;20044;-62
2023/08/17 08:55:10;;;;;;;12.90;7.40;;;;;;;22.01;100.00;100347.28;5091594;28;20387;-62
2023/08/17 08:57:36;;;;;;;10.40;6.43;;;;;;;22.11;100.00;100350.19;5091622;28;20040;-62
2023/08/17 09:00:02;;;;;;;14.52;7.05;;;;;;;22.27;100.00;100343.13;5091392;28;20036;-62
2023/08/17 09:02:28;;;;;;;14.35;7.82;;;;;;;22.31;100.00;100343.44;5091502;28;20071;-62
2023/08/17 09:04:54;;;;;;;15.30;8.02;;;;;;;22.37;100.00;100335.13;5091472;28;20052;-60
2023/08/17 09:07:22;;;;;;;14.40;8.25;;;;;;;22.48;100.00;100339.63;5091986;28;20032;-62
2023/08/17 09:09:48;;;;;;;14.13;7.80;;;;;;;22.56;100.00;100329.41;5095042;28;20487;-61
2023/08/17 09:12:13;;;;;;;14.80;8.18;;;;;;;22.61;100.00;100333.03;5095180;28;20024;-62
2023/08/17 09:14:40;;;;;;;16.52;7.95;;;;;;;22.68;100.00;100320.09;5095283;28;20055;-62
2023/08/17 09:17:06;;;;;;;12.02;8.43;;;;;;;22.79;100.00;100318.34;5095216;28;20048;-62
2023/08/17 09:19:33;;;;;;;14.65;7.93;;;;;;;22.84;100.00;100321.13;5094924;28;20028;-62
2023/08/17 09:21:59;;;;;;;15.98;8.70;;;;;;;22.87;100.00;100322.53;5095072;28;20032;-62
2023/08/17 09:24:34;;;;;;;14.27;8.63;;;;;;;22.98;100.00;100322.41;5095098;28;20040;-62
2023/08/17 09:27:00;;;;;;;14.48;8.25;;;;;;;22.97;100.00;100326.19;5094932;28;20493;-62
2023/08/17 09:29:25;;;;;;;14.45;8.18;;;;;;;22.90;100.00;100322.88;5094738;28;20119;-62
2023/08/17 09:31:51;;;;;;;11.88;7.95;;;;;;;22.88;100.00;100322.28;5094771;28;20050;-62
2023/08/17 09:34:16;;;;;;;18.35;8.10;;;;;;;22.89;100.00;100323.13;5094910;28;20164;-62
2023/08/17 09:36:41;;;;;;;14.25;7.82;;;;;;;22.99;100.00;100329.47;5094996;28;20523;-59
2023/08/17 09:39:07;;;;;;;11.60;7.15;;;;;;;22.90;100.00;100328.28;5094539;28;20030;-61
2023/08/17 09:41:40;;;;;;;13.98;8.18;;;;;;;23.02;100.00;100314.59;5094801;28;20123;-62
2023/08/17 09:44:06;;;;;;;11.48;7.97;;;;;;;22.83;100.00;100311.34;5094774;28;20036;-62
2023/08/17 09:46:32;;;;;;;14.15;7.72;;;;;;;23.13;100.00;100307.34;5094642;28;20426;-62
2023/08/17 09:48:57;;;;;;;13.25;6.95;;;;;;;23.49;100.00;100319.44;5094570;28;20039;-62
2023/08/17 09:51:23;;;;;;;12.23;6.82;;;;;;;23.72;100.00;100319.13;5093318;28;20048;-61
2023/08/17 09:53:54;;;;;;;14.35;7.60;;;;;;;23.78;99.01;100322.72;5094499;28;20101;-61
2023/08/17 09:56:23;;;;;;;15.73;8.27;;;;;;;23.73;98.38;100319.97;5094426;28;20032;-61
2023/08/17 09:58:49;;;;;;;13.75;7.63;;;;;;;23.79;97.96;100314.31;5094223;28;20036;-61
2023/08/17 10:01:15;;;;;;;15.18;7.35;;;;;;;23.97;96.70;100306.84;5094481;28;20104;-62
2023/08/17 10:03:45;;;;;;;13.13;8.32;;;;;;;23.89;96.30;100313.59;5094549;28;20028;-62
2023/08/17 10:06:13;;;;;;;11.90;6.68;;;;;;;24.25;94.81;100306.50;5094537;28;20565;-62
2023/08/17 10:08:52;;;;;;;11.85;6.65;;;;;;;24.39;94.66;100309.63;5094015;28;20039;-62
2023/08/17 10:11:21;;;;;;;10.88;7.18;;;;;;;24.30;92.66;100311.16;5094224;28;20040;-62
2023/08/17 10:14:02;;;;;;;12.23;6.88;;;;;;;24.43;93.46;100320.81;5094120;28;20047;-61
2023/08/17 10:16:39;;;;;;;12.45;6.57;;;;;;;24.61;92.40;100320.38;5094104;28;20051;-62
2023/08/17 10:19:17;;;;;;;9.60;6.30;;;;;;;24.74;90.82;100316.34;5093876;28;20123;-61
2023/08/17 10:21:48;;;;;;;9.57;6.65;;;;;;;24.85;89.29;100318.03;5094040;28;20059;-62
2023/08/17 10:24:13;;;;;;;10.65;6.47;;;;;;;24.95;89.52;100306.34;5093799;28;20043;-63
2023/08/17 10:26:39;;;;;;;9.48;5.95;;;;;;;25.33;89.14;100313.31;5093817;28;20043;-63
2023/08/17 10:29:05;;;;;;;10.82;6.32;;;;;;;25.76;89.95;100316.69;5093663;28;20036;-61
2023/08/17 10:31:34;;;;;;;9.85;5.47;;;;;;;26.28;84.86;100321.00;5093788;28;20063;-62
2023/08/17 10:34:00;;;;;;;9.55;6.53;;;;;;;26.30;84.81;100321.56;5093789;28;20405;-61
2023/08/17 10:36:26;;;;;;;11.30;6.00;;;;;;;27.04;78.64;100324.38;5093726;28;20037;-62
2023/08/17 10:39:27;;;;;;;9.05;5.28;;;;;;;27.84;77.98;100326.09;5093367;28;20512;-62
2023/08/17 10:41:53;;;;;;;8.88;5.20;;;;;;;28.69;69.84;100328.34;5093732;28;20036;-62
2023/08/17 10:44:38;;;;;;;10.27;6.00;;;;;;;28.98;66.57;100336.53;5093589;28;20127;-62
2023/08/17 10:47:26;;;;;;;8.60;5.32;;;;;;;29.13;65.58;100327.28;5093474;28;20039;-62
2023/08/17 10:50:02;;;;;;;8.52;5.20;;;;;;;28.95;65.98;100336.28;5093221;28;20034;-61
2023/08/17 10:52:29;;;;;;;7.90;5.90;;;;;;;28.72;71.48;100326.94;5093625;28;20075;-62
2023/08/17 10:54:56;;;;;;;;;;;;;;;28.36;69.37;100330.91;5093832;28;20448;-61
2023/08/17 10:57:28;;;;;;;8.35;6.22;;;;;;;27.93;70.98;100331.81;5093250;28;19912;-62
2023/08/17 11:00:32;;;;;;;9.05;5.75;;;;;;;28.25;72.76;100340.28;5093189;28;20510;-62
2023/08/17 11:02:59;;;;;;;9.40;5.75;;;;;;;28.78;71.66;100339.47;5089877;28;20666;-62
2023/08/17 11:05:33;;;;;;;8.95;5.82;;;;;;;28.82;71.33;100333.13;5093125;28;20085;-62
2023/08/17 11:07:59;;;;;;;9.07;6.47;;;;;;;28.06;67.70;100328.41;5093149;28;20111;-62
2023/08/17 11:10:24;;;;;;;11.40;7.18;;;;;;;28.06;69.89;100331.97;5092800;28;20143;-62
2023/08/17 11:12:56;;;;;;;8.18;5.80;;;;;;;28.26;74.95;100327.41;5093165;28;20046;-63
2023/08/17 11:15:23;;;;;;;10.27;6.30;;;;;;;28.52;71.54;100330.72;5092980;28;20039;-61
2023/08/17 11:17:48;;;;;;;9.60;6.05;;;;;;;28.54;77.00;100321.09;5092925;28;20039;-60
2023/08/17 11:20:14;;;;;;;9.15;6.45;;;;;;;29.06;64.38;100315.84;5092541;28;20406;-61
2023/08/17 11:22:39;;;;;;;13.27;7.38;;;;;;;29.11;69.21;100308.38;5093022;28;20040;-61
2023/08/17 11:25:05;;;;;;;9.05;6.90;;;;;;;29.45;69.86;100299.94;5092848;28;20122;-62
2023/08/17 11:27:31;;;;;;;11.23;7.50;;;;;;;29.55;63.54;100309.16;5092820;28;20101;-62
2023/08/17 11:29:56;;;;;;;10.15;7.07;;;;;;;29.76;65.60;100320.63;5092152;28;20289;-62
2023/08/17 11:32:22;;;;;;;12.25;7.55;;;;;;;29.23;65.96;100329.88;5091385;28;20392;-62
2023/08/17 11:34:47;;;;;;;11.63;7.65;;;;;;;28.76;66.07;100342.53;5092753;28;20127;-62
2023/08/17 11:37:12;;;;;;;15.40;8.48;;;;;;;28.16;70.00;100352.94;5092561;28;20061;-62
2023/08/17 11:39:38;;;;;;;11.35;8.10;;;;;;;28.01;73.58;100347.59;5092304;28;20488;-62
2023/08/17 11:42:04;;;;;;;11.80;8.13;;;;;;;27.59;76.48;100338.06;5092516;28;20093;-60
2023/08/17 11:44:30;;;;;;;12.82;8.38;;;;;;;27.59;76.43;100332.56;5092530;28;20123;-62
2023/08/17 11:46:55;;;;;;;12.30;7.53;;;;;;;27.90;77.04;100337.84;5092442;28;20044;-62
2023/08/17 11:49:23;;;;;;;13.93;8.32;;;;;;;27.84;74.64;100337.91;5092119;28;20032;-62
2023/08/17 11:51:48;;;;;;;12.57;8.38;;;;;;;27.83;74.40;100360.88;5092528;28;20376;-62
2023/08/17 11:54:14;;;;;;;10.13;8.00;;;;;;;27.46;74.77;100364.13;5092393;28;20047;-62
2023/08/17 11:56:39;;;;;;;10.88;7.85;;;;;;;26.86;78.06;100370.63;5092205;28;20085;-62
2023/08/17 11:59:11;;;;;;;11.32;8.10;;;;;;;26.40;78.54;100362.53;5092049;28;20043;-61
2023/08/17 12:01:37;;;;;;;10.52;7.68;;;;;;;26.30;80.92;100351.59;5092239;28;20497;-60
2023/08/17 12:04:05;;;;;;;11.60;7.82;;;;;;;26.30;82.34;100343.41;5092181;28;20032;-62
2023/08/17 12:06:31;;;;;;;11.15;8.15;;;;;;;26.27;82.99;100350.22;5092137;28;20394;-62
2023/08/17 12:08:56;;;;;;;10.18;7.47;;;;;;;26.04;84.54;100357.06;5091828;28;20036;-62
2023/08/17 12:11:24;;;;;;;12.65;8.32;;;;;;;26.07;82.77;100351.06;5092072;28;20394;-61
2023/08/17 12:13:51;;;;;;;11.23;8.82;;;;;;;26.02;83.02;100347.50;5092135;28;20028;-61
2023/08/17 12:16:18;;;;;;;12.20;8.32;;;;;;;26.19;84.05;100342.59;5091981;28;20479;-62
2023/08/17 12:18:51;;;;;;;13.32;8.65;;;;;;;26.37;82.37;100333.84;5091719;28;20040;-62
2023/08/17 12:21:20;;;;;;;12.30;8.43;;;;;;;26.62;82.73;100326.72;5091806;28;20119;-61
2023/08/17 12:23:45;;;;;;;14.68;8.75;;;;;;;26.64;79.79;100330.00;5091863;28;20109;-62
2023/08/17 12:26:18;;;;;;;12.63;8.65;;;;;;;27.12;77.37;100325.72;5091818;28;20502;-62
2023/08/17 12:28:44;;;;;;;11.13;8.60;;;;;;;27.43;76.05;100328.28;5091624;28;20039;-62
2023/08/17 12:31:10;;;;;;;12.57;8.52;;;;;;;27.88;74.10;100334.56;5091545;28;20040;-62
2023/08/17 12:33:35;;;;;;;12.07;8.95;;;;;;;28.29;69.46;100326.81;5092114;28;20097;-62
2023/08/17 12:36:00;;;;;;;11.48;7.72;;;;;;;28.64;67.28;100311.97;5091830;28;20089;-62
2023/08/17 12:38:26;;;;;;;11.63;8.38;;;;;;;29.11;65.44;100304.81;5091572;28;20039;-62
2023/08/17 12:40:51;;;;;;;10.88;7.93;;;;;;;29.41;63.54;100307.16;5090653;28;20016;-62
2023/08/17 12:43:17;;;;;;;10.82;8.65;;;;;;;29.67;61.53;100310.34;5093985;28;20410;-62
2023/08/17 12:45:42;;;;;;;9.88;7.35;;;;;;;29.13;69.05;100308.88;5095862;28;20040;-62
2023/08/17 12:48:10;;;;;;;9.65;7.57;;;;;;;29.68;65.67;100305.66;5095861;28;20042;-62
2023/08/17 12:50:36;;;;;;;8.80;7.28;;;;;;;29.97;61.99;100294.47;5095647;28;20039;-63
2023/08/17 12:53:01;;;;;;;11.55;8.63;;;;;;;29.70;61.52;100281.47;5095727;28;20036;-62
2023/08/17 12:55:27;;;;;;;11.15;7.97;;;;;;;29.58;63.92;100275.63;5095658;28;20050;-62
2023/08/17 12:57:52;;;;;;;15.37;8.43;;;;;;;29.32;62.24;100275.19;5095722;28;20042;-62
2023/08/17 13:00:17;;;;;;;12.32;7.57;;;;;;;29.48;63.81;100273.84;5095353;28;20035;-63
2023/08/17 13:02:45;;;;;;;10.33;7.53;;;;;;;29.61;64.52;100278.59;5095713;28;20482;-62
2023/08/17 13:05:10;;;;;;;9.25;6.45;;;;;;;29.58;62.50;100270.13;5095354;28;20040;-62
2023/08/17 13:07:35;;;;;;;9.07;7.40;;;;;;;29.24;63.94;100273.91;5095452;28;20178;-62
2023/08/17 13:10:01;;;;;;;9.38;8.05;;;;;;;29.43;62.38;100272.00;5095207;28;20044;-62
2023/08/17 13:12:26;;;;;;;11.82;7.28;;;;;;;29.23;65.00;100266.81;5095307;28;20048;-62
2023/08/17 13:14:52;;;;;;;9.40;7.60;;;;;;;29.35;66.22;100258.94;5095332;28;20040;-63
2023/08/17 13:17:17;;;;;;;11.20;7.65;;;;;;;29.15;66.94;100253.78;5095251;28;20038;-62
2023/08/17 13:19:42;;;;;;;9.15;7.00;;;;;;;29.15;65.38;100251.03;5095058;28;20479;-62
2023/08/17 13:22:08;;;;;;;12.57;7.57;;;;;;;29.22;64.65;100245.19;5095037;28;20036;-62
2023/08/17 13:24:34;;;;;;;8.95;7.38;;;;;;;28.54;68.30;100246.31;5095331;28;20127;-62
2023/08/17 13:26:59;;;;;;;9.38;6.47;;;;;;;28.11;69.61;100251.72;5095031;28;20055;-62
2023/08/17 13:29:24;;;;;;;10.10;6.90;;;;;;;28.61;68.47;100239.38;5094715;28;20032;-62
2023/08/17 13:31:50;;;;;;;10.73;7.18;;;;;;;28.69;68.87;100231.59;5094961;28;20044;-62
2023/08/17 13:34:15;;;;;;;8.35;6.90;;;;;;;28.86;66.24;100224.53;5095086;28;20104;-62
2023/08/17 13:36:41;;;;;;;8.55;6.88;;;;;;;28.91;67.05;100215.41;5094863;28;20116;-62
2023/08/17 13:39:06;;;;;;;10.02;6.93;;;;;;;28.72;66.06;100211.84;5094797;28;20063;-62
2023/08/17 13:41:32;;;;;;;9.85;6.82;;;;;;;29.07;65.62;100197.66;5094863;28;20437;-62
2023/08/17 13:43:57;;;;;;;9.63;6.70;;;;;;;28.93;64.76;100207.75;5094854;28;20062;-62
2023/08/17 13:46:23;;;;;;;7.47;6.47;;;;;;;28.87;66.48;100197.91;5094838;28;20044;-62
2023/08/17 13:48:48;;;;;;;7.53;6.57;;;;;;;28.95;67.09;100204.69;5094544;28;20082;-62
2023/08/17 13:51:14;;;;;;;8.48;6.15;;;;;;;29.14;64.44;100197.28;5094528;28;20402;-62
2023/08/17 13:53:40;;;;;;;7.57;6.50;;;;;;;29.20;63.89;100201.56;5093899;28;20078;-62
2023/08/17 13:56:05;;;;;;;7.70;6.38;;;;;;;29.17;64.70;100204.91;5082971;28;20036;-62
2023/08/17 13:58:31;;;;;;;7.10;6.22;;;;;;;29.10;65.97;100190.78;5084573;28;20486;-62
2023/08/17 14:00:56;;;;;;;9.35;6.43;;;;;;;29.09;68.37;100186.41;5083967;28;20075;-62
2023/08/17 14:03:23;;;;;;;11.57;6.85;;;;;;;28.84;68.80;100185.63;5083209;28;20384;-61
2023/08/17 14:05:48;;;;;;;10.10;7.03;;;;;;;28.77;69.01;100193.41;5084689;28;20106;-62
2023/08/17 14:08:14;;;;;;;8.77;5.93;;;;;;;28.77;70.68;100187.13;5083312;28;20427;-62
2023/08/17 14:10:39;;;;;;;8.75;6.85;;;;;;;28.71;69.92;100188.31;5083118;28;20505;-62
2023/08/17 14:13:05;;;;;;;10.38;6.95;;;;;;;28.97;69.38;100177.81;5084640;28;20036;-62
2023/08/17 14:15:30;;;;;;;8.30;6.45;;;;;;;29.05;66.95;100177.13;5082690;28;20059;-62
2023/08/17 14:17:56;;;;;;;9.38;6.63;;;;;;;28.77;69.31;100176.16;5083810;28;20024;-61
2023/08/17 14:20:21;;;;;;;8.60;6.97;;;;;;;28.71;69.03;100177.34;5083779;28;20044;-62
2023/08/17 14:22:47;;;;;;;8.50;6.07;;;;;;;28.74;68.55;100176.72;5082512;28;20039;-63
2023/08/17 14:25:12;;;;;;;7.93;6.43;;;;;;;28.82;68.06;100178.81;5084171;28;20032;-62
2023/08/17 14:27:37;;;;;;;7.97;5.97;;;;;;;28.80;64.31;100173.63;5083503;28;20086;-63
2023/08/17 14:30:03;;;;;;;6.20;5.50;;;;;;;28.52;65.44;100178.13;5082230;28;20028;-61
2023/08/17 14:32:29;;;;;;;8.75;6.30;;;;;;;28.50;65.21;100166.66;5082204;28;20033;-61
2023/08/17 14:34:55;;;;;;;9.32;6.07;;;;;;;28.67;65.82;100166.94;5082407;28;20388;-61
2023/08/17 14:37:20;;;;;;;7.22;6.32;;;;;;;28.64;66.88;100164.00;5082167;28;20036;-60
2023/08/17 14:39:46;;;;;;;8.40;5.90;;;;;;;28.18;69.34;100148.13;5079324;28;20033;-61
2023/08/17 14:42:12;;;;;;;8.45;6.20;;;;;;;28.28;71.15;100142.50;5086865;28;20028;-61
2023/08/17 14:44:37;;;;;;;6.93;5.88;;;;;;;28.26;69.97;100136.53;5083221;28;20033;-62
2023/08/17 14:47:03;;;;;;;9.43;6.15;;;;;;;28.11;72.02;100120.28;5082054;28;20064;-62
2023/08/17 14:49:28;;;;;;;7.47;5.63;;;;;;;28.22;72.72;100121.78;5081818;28;20094;-62
2023/08/17 14:51:54;;;;;;;9.40;6.20;;;;;;;28.29;71.07;100126.91;5067463;28;20044;-62
2023/08/17 14:54:19;;;;;;;7.82;6.10;;;;;;;28.21;69.92;100117.41;5082810;28;20047;-62
2023/08/17 14:56:45;;;;;;;8.95;6.00;;;;;;;28.07;71.98;100111.03;5066171;28;20043;-63
2023/08/17 14:59:10;;;;;;;8.98;6.32;;;;;;;28.21;72.38;100114.69;5081636;28;20115;-63
2023/08/17 15:01:36;;;;;;;9.82;6.68;;;;;;;28.06;71.79;100106.66;5082859;28;20032;-62
2023/08/17 15:04:01;;;;;;;9.50;6.05;;;;;;;28.12;72.51;100105.50;5083399;28;20037;-63
2023/08/17 15:06:27;;;;;;;7.18;6.13;;;;;;;28.19;71.33;100100.47;5062970;28;20024;-62
2023/08/17 15:08:52;;;;;;;9.05;6.47;;;;;;;28.31;73.17;100098.16;5081882;28;20498;-61
2023/08/17 15:11:18;;;;;;;8.85;5.90;;;;;;;28.30;72.73;100104.72;5082644;28;20063;-63
2023/08/17 15:13:43;;;;;;;9.70;7.88;;;;;;;28.15;71.74;100091.22;5081644;28;20489;-63
2023/08/17 15:16:10;;;;;;;11.07;7.57;;;;;;;28.20;73.37;100093.88;5072734;28;20036;-62
2023/08/17 15:18:35;;;;;;;6.80;5.90;;;;;;;28.24;72.61;100097.69;5072483;28;20113;-62
2023/08/17 15:21:01;;;;;;;8.20;6.22;;;;;;;28.21;73.14;100097.44;5072467;28;20294;-63
2023/08/17 15:23:26;;;;;;;7.93;6.43;;;;;;;28.11;69.63;100098.41;5088001;28;20123;-63
2023/08/17 15:25:52;;;;;;;11.82;8.43;;;;;;;28.16;70.99;100106.53;5092712;28;20126;-62
2023/08/17 15:28:17;;;;;;;10.30;6.55;;;;;;;28.38;71.23;100115.03;5091850;28;20458;-62
2023/08/17 15:30:43;;;;;;;8.98;6.03;;;;;;;28.36;71.42;100114.53;5092221;28;20040;-62
2023/08/17 15:33:08;;;;;;;8.30;6.07;;;;;;;28.45;71.02;100117.41;5092592;28;20063;-61
2023/08/17 15:35:33;;;;;;;8.00;5.82;;;;;;;28.31;71.69;100120.06;5092581;28;20044;-62